sensor_id;sensor_type;location;lat;lon;timestamp;pressure;altitude;pressure_sealevel;temperature;humidity
11268;BME280;72685;47.474;9.416;2023-12-20T00:02:22;95713.31;;;3.46;96.06
11268;BME280;72685;47.474;9.416;2023-12-20T00:04:48;95724.09;;;3.39;96.60
11268;BME280;72685;47.474;9.416;2023-12-20T00:07:13;95726.44;;;3.31;99.30
11268;BME280;72685;47.474;9.416;2023-12-20T00:09:39;95714.56;;;3.33;94.42
11268;BME280;72685;47.474;9.416;2023-12-20T00:12:04;95713.69;;;3.22;93.23
11268;BME280;72685;47.474;9.416;2023-12-20T00:14:30;95707.94;;;3.31;97.08
11268;BME280;72685;47.474;9.416;2023-12-20T00:16:55;95695.75;;;3.25;96.54
11268;BME280;72685;47.474;9.416;2023-12-20T00:19:21;95702.06;;;3.18;96.51
11268;BME280;72685;47.474;9.416;2023-12-20T00:21:46;95710.44;;;3.10;95.90
11268;BME280;72685;47.474;9.416;2023-12-20T00:24:11;95709.06;;;3.03;97.58
11268;BME280;72685;47.474;9.416;2023-12-20T00:26:37;95708.56;;;3.06;97.01
11268;BME280;72685;47.474;9.416;2023-12-20T00:29:02;95711.72;;;3.03;96.43
11268;BME280;72685;47.474;9.416;2023-12-20T00:31:27;95714.06;;;3.04;97.68
11268;BME280;72685;47.474;9.416;2023-12-20T00:33:53;95705.88;;;3.01;97.10
11268;BME280;72685;47.474;9.416;2023-12-20T00:36:18;95708.78;;;2.99;96.63
11268;BME280;72685;47.474;9.416;2023-12-20T00:38:44;95716.72;;;3.04;95.96
11268;BME280;72685;47.474;9.416;2023-12-20T00:41:10;95717.19;;;2.96;96.81
11268;BME280;72685;47.474;9.416;2023-12-20T00:43:35;95717.72;;;2.98;97.87
11268;BME280;72685;47.474;9.416;2023-12-20T00:46:00;95719.78;;;2.91;98.20
11268;BME280;72685;47.474;9.416;2023-12-20T00:48:26;95723.13;;;2.82;100.00
11268;BME280;72685;47.474;9.416;2023-12-20T00:50:57;95727.34;;;2.83;100.00
11268;BME280;72685;47.474;9.416;2023-12-20T00:53:22;95729.28;;;2.65;100.00
11268;BME280;72685;47.474;9.416;2023-12-20T00:55:48;95712.91;;;2.58;100.00
11268;BME280;72685;47.474;9.416;2023-12-20T00:58:13;95715.00;;;2.88;93.61
11268;BME280;72685;47.474;9.416;2023-12-20T01:00:40;95697.91;;;3.28;88.97
11268;BME280;72685;47.474;9.416;2023-12-20T01:03:07;95693.28;;;3.50;86.92
11268;BME280;72685;47.474;9.416;2023-12-20T01:05:32;95676.47;;;3.66;84.51
11268;BME280;72685;47.474;9.416;2023-12-20T01:07:58;95658.53;;;3.73;84.88
11268;BME280;72685;47.474;9.416;2023-12-20T01:10:23;95666.22;;;3.80;83.48
11268;BME280;72685;47.474;9.416;2023-12-20T01:12:48;95663.59;;;3.85;82.67
11268;BME280;72685;47.474;9.416;2023-12-20T01:15:14;95668.38;;;3.88;83.51
11268;BME280;72685;47.474;9.416;2023-12-20T01:17:39;95674.97;;;3.85;84.22
11268;BME280;72685;47.474;9.416;2023-12-20T01:20:05;95662.81;;;3.84;85.14
11268;BME280;72685;47.474;9.416;2023-12-20T01:22:31;95657.50;;;3.84;85.86
11268;BME280;72685;47.474;9.416;2023-12-20T01:24:56;95656.94;;;3.77;86.87
11268;BME280;72685;47.474;9.416;2023-12-20T01:27:22;95655.81;;;3.58;89.59
11268;BME280;72685;47.474;9.416;2023-12-20T01:29:47;95662.63;;;3.49;91.51
11268;BME280;72685;47.474;9.416;2023-12-20T01:32:12;95665.94;;;3.76;85.41
11268;BME280;72685;47.474;9.416;2023-12-20T01:34:38;95669.41;;;3.87;83.83
11268;BME280;72685;47.474;9.416;2023-12-20T01:37:03;95671.25;;;3.86;86.22
11268;BME280;72685;47.474;9.416;2023-12-20T01:39:29;95669.44;;;3.92;83.23
11268;BME280;72685;47.474;9.416;2023-12-20T01:41:54;95662.31;;;3.97;83.41
11268;BME280;72685;47.474;9.416;2023-12-20T01:44:20;95657.88;;;4.13;80.49
11268;BME280;72685;47.474;9.416;2023-12-20T01:46:46;95643.41;;;4.31;77.48
11268;BME280;72685;47.474;9.416;2023-12-20T01:49:13;95643.16;;;4.42;76.92
11268;BME280;72685;47.474;9.416;2023-12-20T01:51:39;95649.22;;;4.48;75.97
11268;BME280;72685;47.474;9.416;2023-12-20T01:54:04;95661.16;;;4.40;78.11
11268;BME280;72685;47.474;9.416;2023-12-20T01:56:30;95654.50;;;4.38;79.39
11268;BME280;72685;47.474;9.416;2023-12-20T01:58:57;95655.06;;;4.50;75.85
11268;BME280;72685;47.474;9.416;2023-12-20T02:01:23;95654.00;;;4.51;76.96
11268;BME280;72685;47.474;9.416;2023-12-20T02:03:49;95656.38;;;4.42;78.97
11268;BME280;72685;47.474;9.416;2023-12-20T02:06:16;95662.16;;;4.29;81.52
11268;BME280;72685;47.474;9.416;2023-12-20T02:08:41;95656.31;;;4.22;80.86
11268;BME280;72685;47.474;9.416;2023-12-20T02:11:07;95651.56;;;4.14;81.40
11268;BME280;72685;47.474;9.416;2023-12-20T02:13:33;95642.81;;;4.13;81.15
11268;BME280;72685;47.474;9.416;2023-12-20T02:15:58;95641.75;;;4.09;82.40
11268;BME280;72685;47.474;9.416;2023-12-20T02:18:24;95636.97;;;4.01;84.08
11268;BME280;72685;47.474;9.416;2023-12-20T02:20:49;95630.09;;;4.00;83.89
11268;BME280;72685;47.474;9.416;2023-12-20T02:23:14;95634.59;;;4.15;80.35
11268;BME280;72685;47.474;9.416;2023-12-20T02:25:40;95615.31;;;4.24;80.14
11268;BME280;72685;47.474;9.416;2023-12-20T02:28:06;95614.03;;;4.32;80.04
11268;BME280;72685;47.474;9.416;2023-12-20T02:30:32;95614.06;;;4.52;76.98
11268;BME280;72685;47.474;9.416;2023-12-20T02:33:01;95600.06;;;4.72;75.12
11268;BME280;72685;47.474;9.416;2023-12-20T02:35:28;95612.44;;;5.02;73.33
11268;BME280;72685;47.474;9.416;2023-12-20T02:37:54;95616.16;;;5.16;71.61
11268;BME280;72685;47.474;9.416;2023-12-20T02:40:19;95615.38;;;5.05;75.89
11268;BME280;72685;47.474;9.416;2023-12-20T02:42:44;95613.81;;;4.94;75.36
11268;BME280;72685;47.474;9.416;2023-12-20T02:45:10;95606.91;;;4.98;74.60
11268;BME280;72685;47.474;9.416;2023-12-20T02:47:35;95615.09;;;5.12;71.85
11268;BME280;72685;47.474;9.416;2023-12-20T02:50:00;95618.25;;;5.19;72.00
11268;BME280;72685;47.474;9.416;2023-12-20T02:52:28;95610.34;;;5.04;75.03
11268;BME280;72685;47.474;9.416;2023-12-20T02:54:54;95607.69;;;4.99;75.58
11268;BME280;72685;47.474;9.416;2023-12-20T02:57:19;95611.13;;;5.04;73.91
11268;BME280;72685;47.474;9.416;2023-12-20T02:59:44;95602.38;;;5.14;73.53
11268;BME280;72685;47.474;9.416;2023-12-20T03:02:10;95605.53;;;5.26;73.08
11268;BME280;72685;47.474;9.416;2023-12-20T03:04:35;95611.38;;;5.18;72.73
11268;BME280;72685;47.474;9.416;2023-12-20T03:07:00;95614.53;;;5.35;71.29
11268;BME280;72685;47.474;9.416;2023-12-20T03:09:26;95619.28;;;5.33;72.59
11268;BME280;72685;47.474;9.416;2023-12-20T03:11:51;95612.16;;;5.18;74.35
11268;BME280;72685;47.474;9.416;2023-12-20T03:14:16;95612.13;;;5.33;71.49
11268;BME280;72685;47.474;9.416;2023-12-20T03:16:47;95617.16;;;5.45;70.96
11268;BME280;72685;47.474;9.416;2023-12-20T03:19:15;95617.91;;;5.56;71.10
11268;BME280;72685;47.474;9.416;2023-12-20T03:21:40;95624.47;;;5.73;69.52
11268;BME280;72685;47.474;9.416;2023-12-20T03:24:05;95625.00;;;5.85;69.42
11268;BME280;72685;47.474;9.416;2023-12-20T03:26:31;95628.94;;;5.88;70.09
11268;BME280;72685;47.474;9.416;2023-12-20T03:28:56;95623.66;;;5.93;70.21
11268;BME280;72685;47.474;9.416;2023-12-20T03:31:21;95630.19;;;6.11;70.21
11268;BME280;72685;47.474;9.416;2023-12-20T03:33:47;95639.94;;;6.20;70.97
11268;BME280;72685;47.474;9.416;2023-12-20T03:36:12;95641.03;;;6.14;71.01
11268;BME280;72685;47.474;9.416;2023-12-20T03:38:37;95635.47;;;6.11;72.16
11268;BME280;72685;47.474;9.416;2023-12-20T03:41:04;95643.72;;;6.04;72.90
11268;BME280;72685;47.474;9.416;2023-12-20T03:43:29;95652.75;;;6.08;73.17
11268;BME280;72685;47.474;9.416;2023-12-20T03:45:54;95648.78;;;6.06;72.86
11268;BME280;72685;47.474;9.416;2023-12-20T03:48:20;95655.94;;;6.00;72.92
11268;BME280;72685;47.474;9.416;2023-12-20T03:50:45;95657.56;;;5.96;76.17
11268;BME280;72685;47.474;9.416;2023-12-20T03:53:10;95659.44;;;5.96;77.80
11268;BME280;72685;47.474;9.416;2023-12-20T03:55:36;95654.63;;;5.98;79.24
11268;BME280;72685;47.474;9.416;2023-12-20T03:58:01;95659.19;;;5.82;83.39
11268;BME280;72685;47.474;9.416;2023-12-20T04:00:26;95660.03;;;5.67;86.63
11268;BME280;72685;47.474;9.416;2023-12-20T04:02:52;95646.25;;;5.55;88.53
11268;BME280;72685;47.474;9.416;2023-12-20T04:05:17;95637.81;;;5.43;91.42
11268;BME280;72685;47.474;9.416;2023-12-20T04:07:43;95637.81;;;5.48;88.63
11268;BME280;72685;47.474;9.416;2023-12-20T04:10:09;95633.56;;;5.47;87.71
11268;BME280;72685;47.474;9.416;2023-12-20T04:12:34;95637.78;;;5.53;86.68
11268;BME280;72685;47.474;9.416;2023-12-20T04:15:00;95641.25;;;5.49;87.11
11268;BME280;72685;47.474;9.416;2023-12-20T04:17:25;95639.16;;;5.41;89.01
11268;BME280;72685;47.474;9.416;2023-12-20T04:19:51;95646.03;;;5.42;88.81
11268;BME280;72685;47.474;9.416;2023-12-20T04:22:17;95646.59;;;5.39;88.77
11268;BME280;72685;47.474;9.416;2023-12-20T04:24:43;95647.88;;;5.36;91.08
11268;BME280;72685;47.474;9.416;2023-12-20T04:27:08;95648.72;;;5.31;90.86
11268;BME280;72685;47.474;9.416;2023-12-20T04:29:34;95660.38;;;5.25;91.85
11268;BME280;72685;47.474;9.416;2023-12-20T04:31:59;95673.88;;;5.14;94.07
11268;BME280;72685;47.474;9.416;2023-12-20T04:34:25;95675.47;;;5.15;94.84
11268;BME280;72685;47.474;9.416;2023-12-20T04:36:51;95677.88;;;5.06;95.06
11268;BME280;72685;47.474;9.416;2023-12-20T04:39:16;95683.69;;;4.98;96.11
11268;BME280;72685;47.474;9.416;2023-12-20T04:41:41;95682.13;;;4.97;96.75
11268;BME280;72685;47.474;9.416;2023-12-20T04:44:07;95683.41;;;4.95;96.96
11268;BME280;72685;47.474;9.416;2023-12-20T04:46:32;95703.56;;;4.91;98.60
11268;BME280;72685;47.474;9.416;2023-12-20T04:48:58;95699.84;;;4.87;99.46
11268;BME280;72685;47.474;9.416;2023-12-20T04:51:23;95699.28;;;4.74;100.00
11268;BME280;72685;47.474;9.416;2023-12-20T04:53:48;95709.88;;;4.59;100.00
11268;BME280;72685;47.474;9.416;2023-12-20T04:56:14;95712.75;;;4.63;100.00
11268;BME280;72685;47.474;9.416;2023-12-20T04:58:39;95709.03;;;4.54;100.00
11268;BME280;72685;47.474;9.416;2023-12-20T05:01:06;95717.78;;;4.49;100.00
11268;BME280;72685;47.474;9.416;2023-12-20T05:03:31;95722.28;;;4.59;100.00
11268;BME280;72685;47.474;9.416;2023-12-20T05:05:56;95728.34;;;4.54;100.00
11268;BME280;72685;47.474;9.416;2023-12-20T05:08:22;95727.56;;;4.49;100.00
11268;BME280;72685;47.474;9.416;2023-12-20T05:10:47;95726.22;;;4.46;100.00
11268;BME280;72685;47.474;9.416;2023-12-20T05:13:13;95732.56;;;4.45;100.00
11268;BME280;72685;47.474;9.416;2023-12-20T05:15:38;95730.44;;;4.42;100.00
11268;BME280;72685;47.474;9.416;2023-12-20T05:18:04;95731.78;;;4.45;100.00
11268;BME280;72685;47.474;9.416;2023-12-20T05:20:29;95735.75;;;4.42;100.00
11268;BME280;72685;47.474;9.416;2023-12-20T05:22:55;95745.53;;;4.42;100.00
11268;BME280;72685;47.474;9.416;2023-12-20T05:25:20;95741.28;;;4.36;100.00
11268;BME280;72685;47.474;9.416;2023-12-20T05:27:45;95741.50;;;4.34;100.00
11268;BME280;72685;47.474;9.416;2023-12-20T05:30:11;95744.94;;;4.30;100.00
11268;BME280;72685;47.474;9.416;2023-12-20T05:32:36;95753.41;;;4.26;100.00
11268;BME280;72685;47.474;9.416;2023-12-20T05:35:02;95736.97;;;4.19;100.00
11268;BME280;72685;47.474;9.416;2023-12-20T05:37:28;95750.97;;;4.15;100.00
11268;BME280;72685;47.474;9.416;2023-12-20T05:39:54;95751.75;;;4.15;100.00
11268;BME280;72685;47.474;9.416;2023-12-20T05:42:19;95756.22;;;4.10;100.00
11268;BME280;72685;47.474;9.416;2023-12-20T05:44:44;95761.25;;;4.06;100.00
11268;BME280;72685;47.474;9.416;2023-12-20T05:47:09;95750.16;;;4.09;100.00
11268;BME280;72685;47.474;9.416;2023-12-20T05:49:35;95753.00;;;3.98;100.00
11268;BME280;72685;47.474;9.416;2023-12-20T05:52:00;95766.50;;;4.01;100.00
11268;BME280;72685;47.474;9.416;2023-12-20T05:54:26;95766.50;;;4.01;100.00
11268;BME280;72685;47.474;9.416;2023-12-20T05:56:51;95762.78;;;3.97;100.00
11268;BME280;72685;47.474;9.416;2023-12-20T05:59:16;95763.59;;;3.98;100.00
11268;BME280;72685;47.474;9.416;2023-12-20T06:01:42;95768.59;;;3.94;100.00
11268;BME280;72685;47.474;9.416;2023-12-20T06:04:07;95768.59;;;3.99;100.00
11268;BME280;72685;47.474;9.416;2023-12-20T06:06:32;95768.34;;;4.01;100.00
11268;BME280;72685;47.474;9.416;2023-12-20T06:08:58;95776.25;;;3.96;100.00
11268;BME280;72685;47.474;9.416;2023-12-20T06:11:23;95771.50;;;3.98;100.00
11268;BME280;72685;47.474;9.416;2023-12-20T06:13:48;95784.47;;;3.99;100.00
11268;BME280;72685;47.474;9.416;2023-12-20T06:16:17;95778.13;;;4.00;100.00
11268;BME280;72685;47.474;9.416;2023-12-20T06:18:43;95777.03;;;3.96;100.00
11268;BME280;72685;47.474;9.416;2023-12-20T06:21:08;95786.03;;;3.95;100.00
11268;BME280;72685;47.474;9.416;2023-12-20T06:23:38;95780.19;;;3.93;100.00
11268;BME280;72685;47.474;9.416;2023-12-20T06:26:03;95777.53;;;3.88;100.00
11268;BME280;72685;47.474;9.416;2023-12-20T06:28:28;95781.72;;;3.84;100.00
11268;BME280;72685;47.474;9.416;2023-12-20T06:30:54;95780.94;;;3.84;100.00
11268;BME280;72685;47.474;9.416;2023-12-20T06:33:20;95784.66;;;3.83;100.00
11268;BME280;72685;47.474;9.416;2023-12-20T06:35:46;95780.13;;;3.78;100.00
11268;BME280;72685;47.474;9.416;2023-12-20T06:38:12;95782.25;;;3.81;100.00
11268;BME280;72685;47.474;9.416;2023-12-20T06:40:37;95779.31;;;3.78;100.00
11268;BME280;72685;47.474;9.416;2023-12-20T06:43:02;95783.78;;;3.77;100.00
11268;BME280;72685;47.474;9.416;2023-12-20T06:45:28;95790.69;;;3.78;100.00
11268;BME280;72685;47.474;9.416;2023-12-20T06:47:53;95789.66;;;3.79;100.00
11268;BME280;72685;47.474;9.416;2023-12-20T06:50:20;95804.13;;;3.77;100.00
11268;BME280;72685;47.474;9.416;2023-12-20T06:52:45;95804.94;;;3.77;100.00
11268;BME280;72685;47.474;9.416;2023-12-20T06:55:11;95800.97;;;3.74;100.00
11268;BME280;72685;47.474;9.416;2023-12-20T06:57:36;95800.72;;;3.76;100.00
11268;BME280;72685;47.474;9.416;2023-12-20T07:00:02;95796.72;;;3.73;100.00
11268;BME280;72685;47.474;9.416;2023-12-20T07:02:28;95791.16;;;3.70;100.00
11268;BME280;72685;47.474;9.416;2023-12-20T07:04:55;95803.03;;;3.67;100.00
11268;BME280;72685;47.474;9.416;2023-12-20T07:07:21;95809.09;;;3.68;100.00
11268;BME280;72685;47.474;9.416;2023-12-20T07:09:48;95808.31;;;3.67;100.00
11268;BME280;72685;47.474;9.416;2023-12-20T07:12:13;95820.72;;;3.67;100.00
11268;BME280;72685;47.474;9.416;2023-12-20T07:14:39;95817.31;;;3.71;100.00
11268;BME280;72685;47.474;9.416;2023-12-20T07:17:04;95811.47;;;3.64;100.00
11268;BME280;72685;47.474;9.416;2023-12-20T07:19:29;95810.66;;;3.64;100.00
11268;BME280;72685;47.474;9.416;2023-12-20T07:21:55;95812.78;;;3.67;100.00
11268;BME280;72685;47.474;9.416;2023-12-20T07:24:20;95807.50;;;3.67;100.00
11268;BME280;72685;47.474;9.416;2023-12-20T07:26:46;95803.31;;;3.71;100.00
11268;BME280;72685;47.474;9.416;2023-12-20T07:29:11;95806.47;;;3.68;100.00
11268;BME280;72685;47.474;9.416;2023-12-20T07:31:36;95802.50;;;3.65;100.00
11268;BME280;72685;47.474;9.416;2023-12-20T07:34:02;95807.25;;;3.68;100.00
11268;BME280;72685;47.474;9.416;2023-12-20T07:36:27;95809.16;;;3.73;100.00
11268;BME280;72685;47.474;9.416;2023-12-20T07:38:52;95814.97;;;3.75;100.00
11268;BME280;72685;47.474;9.416;2023-12-20T07:41:18;95805.78;;;3.83;100.00
11268;BME280;72685;47.474;9.416;2023-12-20T07:43:46;95819.00;;;3.83;100.00
11268;BME280;72685;47.474;9.416;2023-12-20T07:46:11;95813.16;;;3.81;100.00
11268;BME280;72685;47.474;9.416;2023-12-20T07:48:37;95818.22;;;3.82;100.00
11268;BME280;72685;47.474;9.416;2023-12-20T07:51:06;95813.72;;;3.83;100.00
11268;BME280;72685;47.474;9.416;2023-12-20T07:53:33;95811.09;;;3.88;100.00
11268;BME280;72685;47.474;9.416;2023-12-20T07:55:58;95819.03;;;3.88;100.00
11268;BME280;72685;47.474;9.416;2023-12-20T07:58:24;95824.56;;;3.86;100.00
11268;BME280;72685;47.474;9.416;2023-12-20T08:00:49;95815.28;;;3.84;100.00
11268;BME280;72685;47.474;9.416;2023-12-20T08:03:14;95831.44;;;3.87;100.00
11268;BME280;72685;47.474;9.416;2023-12-20T08:05:40;95833.84;;;3.89;100.00
11268;BME280;72685;47.474;9.416;2023-12-20T08:08:06;95842.06;;;3.92;100.00
11268;BME280;72685;47.474;9.416;2023-12-20T08:10:31;95832.53;;;3.91;100.00
11268;BME280;72685;47.474;9.416;2023-12-20T08:12:57;95837.84;;;3.96;100.00
11268;BME280;72685;47.474;9.416;2023-12-20T08:15:22;95842.84;;;3.93;100.00
11268;BME280;72685;47.474;9.416;2023-12-20T08:17:48;95842.09;;;3.97;100.00
11268;BME280;72685;47.474;9.416;2023-12-20T08:20:16;95836.00;;;3.97;100.00
11268;BME280;72685;47.474;9.416;2023-12-20T08:22:41;95844.50;;;3.99;100.00
11268;BME280;72685;47.474;9.416;2023-12-20T08:25:07;95845.03;;;4.01;100.00
11268;BME280;72685;47.474;9.416;2023-12-20T08:27:33;95842.88;;;3.98;100.00
11268;BME280;72685;47.474;9.416;2023-12-20T08:29:59;95833.94;;;4.04;100.00
11268;BME280;72685;47.474;9.416;2023-12-20T08:32:28;95839.25;;;4.09;100.00
11268;BME280;72685;47.474;9.416;2023-12-20T08:34:54;95839.53;;;4.12;100.00
11268;BME280;72685;47.474;9.416;2023-12-20T08:37:19;95836.38;;;4.15;100.00
11268;BME280;72685;47.474;9.416;2023-12-20T08:39:44;95840.63;;;4.21;100.00
11268;BME280;72685;47.474;9.416;2023-12-20T08:42:10;95841.72;;;4.20;100.00
11268;BME280;72685;47.474;9.416;2023-12-20T08:44:35;95845.41;;;4.24;100.00
11268;BME280;72685;47.474;9.416;2023-12-20T08:47:00;95839.38;;;4.29;100.00
11268;BME280;72685;47.474;9.416;2023-12-20T08:49:26;95838.63;;;4.34;100.00
11268;BME280;72685;47.474;9.416;2023-12-20T08:51:53;95833.56;;;4.37;100.00
11268;BME280;72685;47.474;9.416;2023-12-20T08:54:18;95841.81;;;4.41;100.00
11268;BME280;72685;47.474;9.416;2023-12-20T08:56:44;95840.00;;;4.46;100.00
11268;BME280;72685;47.474;9.416;2023-12-20T08:59:10;95838.16;;;4.52;100.00
11268;BME280;72685;47.474;9.416;2023-12-20T09:01:35;95832.66;;;4.63;100.00
11268;BME280;72685;47.474;9.416;2023-12-20T09:04:00;95832.41;;;4.70;100.00
11268;BME280;72685;47.474;9.416;2023-12-20T09:06:26;95825.28;;;4.75;100.00
11268;BME280;72685;47.474;9.416;2023-12-20T09:08:51;95821.84;;;4.80;100.00
11268;BME280;72685;47.474;9.416;2023-12-20T09:11:17;95830.31;;;4.82;100.00
11268;BME280;72685;47.474;9.416;2023-12-20T09:13:43;95827.72;;;4.87;100.00
11268;BME280;72685;47.474;9.416;2023-12-20T09:16:09;95821.09;;;4.90;100.00
11268;BME280;72685;47.474;9.416;2023-12-20T09:18:35;95825.34;;;4.91;100.00
11268;BME280;72685;47.474;9.416;2023-12-20T09:21:00;95824.81;;;4.94;100.00
11268;BME280;72685;47.474;9.416;2023-12-20T09:23:26;95825.09;;;4.97;100.00
11268;BME280;72685;47.474;9.416;2023-12-20T09:25:51;95822.44;;;5.02;100.00
11268;BME280;72685;47.474;9.416;2023-12-20T09:28:16;95828.03;;;5.16;100.00
11268;BME280;72685;47.474;9.416;2023-12-20T09:30:42;95831.47;;;5.26;100.00
11268;BME280;72685;47.474;9.416;2023-12-20T09:33:07;95835.22;;;5.25;100.00
11268;BME280;72685;47.474;9.416;2023-12-20T09:35:33;95829.09;;;5.30;100.00
11268;BME280;72685;47.474;9.416;2023-12-20T09:37:58;95827.53;;;5.34;100.00
11268;BME280;72685;47.474;9.416;2023-12-20T09:40:26;95831.25;;;5.38;100.00
11268;BME280;72685;47.474;9.416;2023-12-20T09:43:03;95824.63;;;5.30;100.00
11268;BME280;72685;47.474;9.416;2023-12-20T09:45:30;95824.38;;;5.32;100.00
11268;BME280;72685;47.474;9.416;2023-12-20T09:47:57;95823.03;;;5.29;100.00
11268;BME280;72685;47.474;9.416;2023-12-20T09:50:23;95830.97;;;5.34;100.00
11268;BME280;72685;47.474;9.416;2023-12-20T09:52:53;95828.06;;;5.36;100.00
11268;BME280;72685;47.474;9.416;2023-12-20T09:55:19;95828.59;;;5.38;100.00
11268;BME280;72685;47.474;9.416;2023-12-20T09:57:46;95826.50;;;5.45;100.00
11268;BME280;72685;47.474;9.416;2023-12-20T10:00:12;95832.06;;;5.49;100.00
11268;BME280;72685;47.474;9.416;2023-12-20T10:02:42;95826.50;;;5.45;100.00
11268;BME280;72685;47.474;9.416;2023-12-20T10:05:15;95826.78;;;5.49;100.00
11268;BME280;72685;47.474;9.416;2023-12-20T10:07:41;95828.88;;;5.47;100.00
11268;BME280;72685;47.474;9.416;2023-12-20T10:10:07;95828.34;;;5.45;100.00
11268;BME280;72685;47.474;9.416;2023-12-20T10:12:34;95833.38;;;5.51;100.00
11268;BME280;72685;47.474;9.416;2023-12-20T10:14:59;95823.56;;;5.47;100.00
11268;BME280;72685;47.474;9.416;2023-12-20T10:17:27;95815.38;;;5.48;100.00
11268;BME280;72685;47.474;9.416;2023-12-20T10:19:54;95814.81;;;5.46;100.00
11268;BME280;72685;47.474;9.416;2023-12-20T10:22:19;95821.47;;;5.49;100.00
11268;BME280;72685;47.474;9.416;2023-12-20T10:24:45;95816.66;;;5.46;100.00
11268;BME280;72685;47.474;9.416;2023-12-20T10:27:11;95814.03;;;5.41;100.00
11268;BME280;72685;47.474;9.416;2023-12-20T10:29:38;95822.25;;;5.39;100.00
11268;BME280;72685;47.474;9.416;2023-12-20T10:32:22;95811.91;;;5.32;100.00
11268;BME280;72685;47.474;9.416;2023-12-20T10:34:49;95803.16;;;5.32;100.00
11268;BME280;72685;47.474;9.416;2023-12-20T10:37:14;95798.66;;;5.27;100.00
11268;BME280;72685;47.474;9.416;2023-12-20T10:39:42;95796.28;;;5.31;100.00
11268;BME280;72685;47.474;9.416;2023-12-20T10:42:10;95787.28;;;5.32;100.00
11268;BME280;72685;47.474;9.416;2023-12-20T10:44:36;95786.72;;;5.40;100.00
11268;BME280;72685;47.474;9.416;2023-12-20T10:47:02;95796.00;;;5.38;100.00
11268;BME280;72685;47.474;9.416;2023-12-20T10:49:30;95788.84;;;5.38;100.00
11268;BME280;72685;47.474;9.416;2023-12-20T10:51:57;95782.75;;;5.38;100.00
11268;BME280;72685;47.474;9.416;2023-12-20T10:54:24;95778.78;;;5.40;100.00
11268;BME280;72685;47.474;9.416;2023-12-20T10:56:51;95779.31;;;5.37;100.00
11268;BME280;72685;47.474;9.416;2023-12-20T10:59:19;95775.84;;;5.37;100.00
11268;BME280;72685;47.474;9.416;2023-12-20T11:01:45;95777.47;;;5.38;100.00
11268;BME280;72685;47.474;9.416;2023-12-20T11:04:15;95770.03;;;5.34;100.00
11268;BME280;72685;47.474;9.416;2023-12-20T11:06:50;95768.44;;;5.33;100.00
11268;BME280;72685;47.474;9.416;2023-12-20T11:09:24;95772.97;;;5.38;100.00
11268;BME280;72685;47.474;9.416;2023-12-20T11:12:13;95766.06;;;5.37;100.00
11268;BME280;72685;47.474;9.416;2023-12-20T11:17:09;95769.00;;;5.36;100.00
11268;BME280;72685;47.474;9.416;2023-12-20T11:19:42;95764.47;;;5.31;100.00
11268;BME280;72685;47.474;9.416;2023-12-20T11:22:08;95775.84;;;5.26;100.00
11268;BME280;72685;47.474;9.416;2023-12-20T11:24:34;95770.03;;;5.24;100.00
11268;BME280;72685;47.474;9.416;2023-12-20T11:27:03;95772.16;;;5.22;100.00
11268;BME280;72685;47.474;9.416;2023-12-20T11:29:33;95776.38;;;5.23;100.00
11268;BME280;72685;47.474;9.416;2023-12-20T11:32:04;95771.09;;;5.23;100.00
11268;BME280;72685;47.474;9.416;2023-12-20T11:34:51;95767.66;;;5.18;100.00
11268;BME280;72685;47.474;9.416;2023-12-20T11:37:16;95773.22;;;5.16;100.00
11268;BME280;72685;47.474;9.416;2023-12-20T11:39:43;95770.56;;;5.11;100.00
11268;BME280;72685;47.474;9.416;2023-12-20T11:42:10;95780.34;;;5.11;100.00
11268;BME280;72685;47.474;9.416;2023-12-20T11:44:36;95776.66;;;5.12;100.00
11268;BME280;72685;47.474;9.416;2023-12-20T11:47:02;95775.31;;;5.04;100.00
11268;BME280;72685;47.474;9.416;2023-12-20T11:49:27;95766.03;;;5.02;100.00
11268;BME280;72685;47.474;9.416;2023-12-20T11:51:56;95779.56;;;5.00;100.00
11268;BME280;72685;47.474;9.416;2023-12-20T11:54:21;95776.34;;;4.93;100.00
11268;BME280;72685;47.474;9.416;2023-12-20T11:56:47;95768.66;;;4.92;100.00
11268;BME280;72685;47.474;9.416;2023-12-20T11:59:12;95769.47;;;4.92;100.00
11268;BME280;72685;47.474;9.416;2023-12-20T12:01:38;95774.22;;;4.95;100.00
11268;BME280;72685;47.474;9.416;2023-12-20T12:04:04;95765.00;;;4.98;100.00
11268;BME280;72685;47.474;9.416;2023-12-20T12:06:30;95763.13;;;4.98;100.00
11268;BME280;72685;47.474;9.416;2023-12-20T12:08:55;95763.63;;;4.95;100.00
11268;BME280;72685;47.474;9.416;2023-12-20T12:11:21;95768.41;;;4.98;100.00
11268;BME280;72685;47.474;9.416;2023-12-20T12:13:47;95762.34;;;5.03;100.00
11268;BME280;72685;47.474;9.416;2023-12-20T12:16:17;95756.00;;;5.04;100.00
11268;BME280;72685;47.474;9.416;2023-12-20T12:18:42;95768.44;;;5.03;100.00
11268;BME280;72685;47.474;9.416;2023-12-20T12:21:08;95760.75;;;5.02;100.00
11268;BME280;72685;47.474;9.416;2023-12-20T12:23:34;95762.06;;;4.99;100.00
11268;BME280;72685;47.474;9.416;2023-12-20T12:26:03;95762.59;;;4.91;100.00
11268;BME280;72685;47.474;9.416;2023-12-20T12:28:29;95758.06;;;4.87;100.00
11268;BME280;72685;47.474;9.416;2023-12-20T12:31:00;95764.69;;;4.84;100.00
11268;BME280;72685;47.474;9.416;2023-12-20T12:33:26;95753.31;;;4.78;100.00
11268;BME280;72685;47.474;9.416;2023-12-20T12:35:51;95759.91;;;4.86;100.00
11268;BME280;72685;47.474;9.416;2023-12-20T12:38:20;95756.75;;;4.84;100.00
11268;BME280;72685;47.474;9.416;2023-12-20T12:40:46;95754.38;;;4.88;100.00
11268;BME280;72685;47.474;9.416;2023-12-20T12:43:11;95749.88;;;4.88;100.00
11268;BME280;72685;47.474;9.416;2023-12-20T12:45:38;95754.91;;;4.85;100.00
11268;BME280;72685;47.474;9.416;2023-12-20T12:48:03;95758.31;;;4.85;100.00
11268;BME280;72685;47.474;9.416;2023-12-20T12:50:30;95756.75;;;4.89;100.00
11268;BME280;72685;47.474;9.416;2023-12-20T12:52:56;95747.75;;;4.90;100.00
11268;BME280;72685;47.474;9.416;2023-12-20T12:55:21;95753.84;;;4.91;100.00
11268;BME280;72685;47.474;9.416;2023-12-20T12:57:47;95757.81;;;4.88;100.00
11268;BME280;72685;47.474;9.416;2023-12-20T13:00:12;95752.78;;;4.87;100.00
11268;BME280;72685;47.474;9.416;2023-12-20T13:02:39;95757.56;;;4.85;100.00